sensor_id;sensor_type;location;lat;lon;timestamp;pressure;altitude;pressure_sealevel;temperature;humidity
44148;BME280;29810;55.848;37.368;2023-02-19T00:00:59;97507.91;;;-5.93;74.55
44148;BME280;29810;55.848;37.368;2023-02-19T00:04:24;97502.03;;;-5.88;74.34
44148;BME280;29810;55.848;37.368;2023-02-19T00:07:26;97511.31;;;-5.84;74.25
44148;BME280;29810;55.848;37.368;2023-02-19T00:10:28;97504.56;;;-6.00;74.19
44148;BME280;29810;55.848;37.368;2023-02-19T00:13:29;97494.41;;;-6.03;74.85
44148;BME280;29810;55.848;37.368;2023-02-19T00:16:34;97500.31;;;-6.01;74.71
44148;BME280;29810;55.848;37.368;2023-02-19T00:19:35;97496.94;;;-5.95;75.13
44148;BME280;29810;55.848;37.368;2023-02-19T00:22:37;97469.87;;;-6.06;74.79
44148;BME280;29810;55.848;37.368;2023-02-19T00:25:38;97491.84;;;-5.95;74.80
44148;BME280;29810;55.848;37.368;2023-02-19T00:28:40;97482.56;;;-5.98;74.90
44148;BME280;29810;55.848;37.368;2023-02-19T00:31:42;97485.91;;;-5.96;75.05
44148;BME280;29810;55.848;37.368;2023-02-19T00:34:44;97485.91;;;-5.97;74.94
44148;BME280;29810;55.848;37.368;2023-02-19T00:37:48;97485.09;;;-5.92;74.80
44148;BME280;29810;55.848;37.368;2023-02-19T00:40:49;97475.78;;;-5.93;74.42
44148;BME280;29810;55.848;37.368;2023-02-19T00:43:52;97471.56;;;-6.00;74.58
44148;BME280;29810;55.848;37.368;2023-02-19T00:46:55;97463.94;;;-6.02;74.19
44148;BME280;29810;55.848;37.368;2023-02-19T00:49:56;97452.94;;;-6.05;74.04
44148;BME280;29810;55.848;37.368;2023-02-19T00:52:58;97453.78;;;-6.12;74.34
44148;BME280;29810;55.848;37.368;2023-02-19T00:56:00;97456.31;;;-6.19;74.27
44148;BME280;29810;55.848;37.368;2023-02-19T00:59:02;97447.84;;;-6.22;74.35
44148;BME280;29810;55.848;37.368;2023-02-19T01:02:04;97451.25;;;-6.17;73.99
44148;BME280;29810;55.848;37.368;2023-02-19T01:05:06;97448.69;;;-6.17;74.27
44148;BME280;29810;55.848;37.368;2023-02-19T01:08:08;97438.56;;;-6.12;74.27
44148;BME280;29810;55.848;37.368;2023-02-19T01:11:10;97432.66;;;-6.10;74.27
44148;BME280;29810;55.848;37.368;2023-02-19T01:14:12;97438.59;;;-6.06;74.49
44148;BME280;29810;55.848;37.368;2023-02-19T01:17:14;97440.25;;;-6.05;73.89
44148;BME280;29810;55.848;37.368;2023-02-19T01:20:15;97430.97;;;-6.06;74.06
44148;BME280;29810;55.848;37.368;2023-02-19T01:23:17;97425.91;;;-6.05;74.19
44148;BME280;29810;55.848;37.368;2023-02-19T01:26:24;97436.03;;;-6.05;74.11
44148;BME280;29810;55.848;37.368;2023-02-19T01:29:26;97424.19;;;-6.04;73.89
44148;BME280;29810;55.848;37.368;2023-02-19T01:32:27;97420.81;;;-6.09;73.98
44148;BME280;29810;55.848;37.368;2023-02-19T01:35:29;97417.41;;;-6.22;74.16
44148;BME280;29810;55.848;37.368;2023-02-19T01:38:30;97399.63;;;-6.33;74.27
44148;BME280;29810;55.848;37.368;2023-02-19T01:41:37;97408.13;;;-6.20;74.34
44148;BME280;29810;55.848;37.368;2023-02-19T01:47:42;97400.50;;;-6.22;74.37
44148;BME280;29810;55.848;37.368;2023-02-19T01:50:48;97406.44;;;-6.24;74.69
44148;BME280;29810;55.848;37.368;2023-02-19T01:53:55;97400.50;;;-6.20;75.02
44148;BME280;29810;55.848;37.368;2023-02-19T01:57:01;97401.34;;;-6.15;74.30
44148;BME280;29810;55.848;37.368;2023-02-19T02:00:08;97406.44;;;-6.15;74.49
44148;BME280;29810;55.848;37.368;2023-02-19T02:03:13;97400.47;;;-5.94;74.64
44148;BME280;29810;55.848;37.368;2023-02-19T02:06:21;97403.06;;;-6.05;74.24
44148;BME280;29810;55.848;37.368;2023-02-19T02:09:26;97404.75;;;-6.04;74.26
44148;BME280;29810;55.848;37.368;2023-02-19T02:12:49;97397.97;;;-6.17;73.90
44148;BME280;29810;55.848;37.368;2023-02-19T02:22:19;97395.44;;;-6.20;74.26
44148;BME280;29810;55.848;37.368;2023-02-19T02:32:28;97397.13;;;-6.36;74.48
44148;BME280;29810;55.848;37.368;2023-02-19T02:35:38;97385.25;;;-6.40;74.51
44148;BME280;29810;55.848;37.368;2023-02-19T02:38:43;97380.16;;;-6.50;74.92
44148;BME280;29810;55.848;37.368;2023-02-19T02:41:54;97385.22;;;-6.51;74.81
44148;BME280;29810;55.848;37.368;2023-02-19T02:45:24;97387.78;;;-6.51;75.18
44148;BME280;29810;55.848;37.368;2023-02-19T02:48:56;97376.78;;;-6.50;75.05
44148;BME280;29810;55.848;37.368;2023-02-19T02:52:00;97386.94;;;-6.44;75.07
44148;BME280;29810;55.848;37.368;2023-02-19T02:55:23;97386.91;;;-6.58;75.12
44148;BME280;29810;55.848;37.368;2023-02-19T02:58:26;97379.31;;;-6.62;75.15
44148;BME280;29810;55.848;37.368;2023-02-19T03:01:31;97386.91;;;-6.67;75.77
44148;BME280;29810;55.848;37.368;2023-02-19T03:11:25;97381.00;;;-6.61;76.30
44148;BME280;29810;55.848;37.368;2023-02-19T03:14:50;97387.72;;;-6.67;76.42
44148;BME280;29810;55.848;37.368;2023-02-19T03:18:12;97386.94;;;-6.61;76.23
44148;BME280;29810;55.848;37.368;2023-02-19T03:21:35;97382.69;;;-6.50;76.35
44148;BME280;29810;55.848;37.368;2023-02-19T03:24:49;97369.19;;;-6.49;76.48
44148;BME280;29810;55.848;37.368;2023-02-19T03:28:12;97370.87;;;-6.44;76.57
44148;BME280;29810;55.848;37.368;2023-02-19T03:31:20;97356.50;;;-6.52;77.06
44148;BME280;29810;55.848;37.368;2023-02-19T03:34:28;97367.50;;;-6.42;77.21
44148;BME280;29810;55.848;37.368;2023-02-19T03:37:40;97362.44;;;-6.33;77.39
44148;BME280;29810;55.848;37.368;2023-02-19T03:48:03;97358.22;;;-6.29;76.87
44148;BME280;29810;55.848;37.368;2023-02-19T03:51:19;97354.00;;;-6.35;76.73
44148;BME280;29810;55.848;37.368;2023-02-19T03:54:38;97346.38;;;-6.33;77.02
44148;BME280;29810;55.848;37.368;2023-02-19T04:01:15;97346.38;;;-6.28;77.19
44148;BME280;29810;55.848;37.368;2023-02-19T04:04:32;97341.28;;;-6.32;77.22
44148;BME280;29810;55.848;37.368;2023-02-19T04:07:39;97347.22;;;-6.19;77.46
44148;BME280;29810;55.848;37.368;2023-02-19T04:10:45;97343.84;;;-6.18;77.36
44148;BME280;29810;55.848;37.368;2023-02-19T04:13:54;97339.59;;;-6.17;77.60
44148;BME280;29810;55.848;37.368;2023-02-19T04:17:02;97341.28;;;-6.14;77.29
44148;BME280;29810;55.848;37.368;2023-02-19T04:20:10;97338.78;;;-6.19;77.12
44148;BME280;29810;55.848;37.368;2023-02-19T04:23:17;97332.00;;;-6.26;77.51
44148;BME280;29810;55.848;37.368;2023-02-19T04:26:21;97329.44;;;-6.17;77.38
44148;BME280;29810;55.848;37.368;2023-02-19T04:29:23;97331.16;;;-6.22;77.29
44148;BME280;29810;55.848;37.368;2023-02-19T04:32:24;97329.44;;;-6.25;77.36
44148;BME280;29810;55.848;37.368;2023-02-19T04:35:26;97325.22;;;-6.21;77.39
44148;BME280;29810;55.848;37.368;2023-02-19T04:38:30;97331.13;;;-6.21;77.26
44148;BME280;29810;55.848;37.368;2023-02-19T04:41:32;97329.47;;;-6.20;77.50
44148;BME280;29810;55.848;37.368;2023-02-19T04:44:33;97332.84;;;-6.15;77.02
44148;BME280;29810;55.848;37.368;2023-02-19T04:47:35;97337.94;;;-6.26;76.73
44148;BME280;29810;55.848;37.368;2023-02-19T04:50:37;97329.44;;;-6.33;77.50
44148;BME280;29810;55.848;37.368;2023-02-19T04:53:39;97329.44;;;-6.33;78.07
44148;BME280;29810;55.848;37.368;2023-02-19T04:56:41;97332.00;;;-6.29;78.12
44148;BME280;29810;55.848;37.368;2023-02-19T04:59:42;97315.09;;;-6.27;78.11
44148;BME280;29810;55.848;37.368;2023-02-19T05:02:44;97318.47;;;-6.25;78.13
44148;BME280;29810;55.848;37.368;2023-02-19T05:05:45;97328.63;;;-6.28;77.84
44148;BME280;29810;55.848;37.368;2023-02-19T05:08:47;97315.94;;;-6.30;77.18
44148;BME280;29810;55.848;37.368;2023-02-19T05:11:52;97305.78;;;-6.32;77.97
44148;BME280;29810;55.848;37.368;2023-02-19T05:14:53;97308.34;;;-6.35;77.87
44148;BME280;29810;55.848;37.368;2023-02-19T05:17:55;97310.84;;;-6.47;78.68
44148;BME280;29810;55.848;37.368;2023-02-19T05:21:01;97298.19;;;-6.39;78.69
44148;BME280;29810;55.848;37.368;2023-02-19T05:24:04;97299.03;;;-6.37;78.84
44148;BME280;29810;55.848;37.368;2023-02-19T05:27:05;97300.72;;;-6.33;79.25
44148;BME280;29810;55.848;37.368;2023-02-19T05:30:11;97305.78;;;-6.35;78.81
44148;BME280;29810;55.848;37.368;2023-02-19T05:33:15;97299.84;;;-6.27;78.75
44148;BME280;29810;55.848;37.368;2023-02-19T05:36:20;97305.78;;;-6.21;78.79
44148;BME280;29810;55.848;37.368;2023-02-19T05:39:22;97296.50;;;-6.14;78.34
44148;BME280;29810;55.848;37.368;2023-02-19T05:42:23;97287.16;;;-6.10;78.23
44148;BME280;29810;55.848;37.368;2023-02-19T05:45:28;97291.41;;;-6.05;78.30
44148;BME280;29810;55.848;37.368;2023-02-19T05:48:30;97287.97;;;-5.97;77.79
44148;BME280;29810;55.848;37.368;2023-02-19T05:51:34;97281.22;;;-6.08;78.17
44148;BME280;29810;55.848;37.368;2023-02-19T05:54:37;97277.81;;;-5.93;78.25
44148;BME280;29810;55.848;37.368;2023-02-19T05:57:45;97299.78;;;-5.79;78.31
44148;BME280;29810;55.848;37.368;2023-02-19T06:01:02;97289.59;;;-5.84;76.52
44148;BME280;29810;55.848;37.368;2023-02-19T06:04:08;97295.53;;;-5.74;78.56
44148;BME280;29810;55.848;37.368;2023-02-19T06:07:09;97291.31;;;-5.77;78.06
44148;BME280;29810;55.848;37.368;2023-02-19T06:10:11;97292.97;;;-5.71;78.07
44148;BME280;29810;55.848;37.368;2023-02-19T06:13:17;97289.59;;;-5.67;78.47
44148;BME280;29810;55.848;37.368;2023-02-19T06:16:26;97280.25;;;-5.57;78.08
44148;BME280;29810;55.848;37.368;2023-02-19T06:19:28;97286.09;;;-5.43;78.08
44148;BME280;29810;55.848;37.368;2023-02-19T06:22:30;97280.19;;;-5.45;77.62
44148;BME280;29810;55.848;37.368;2023-02-19T06:25:31;97292.91;;;-5.54;76.57
44148;BME280;29810;55.848;37.368;2023-02-19T06:28:34;97268.44;;;-5.75;76.47
44148;BME280;29810;55.848;37.368;2023-02-19T06:31:36;97281.16;;;-5.82;76.99
44148;BME280;29810;55.848;37.368;2023-02-19T06:34:40;97282.84;;;-5.76;77.63
44148;BME280;29810;55.848;37.368;2023-02-19T06:37:45;97259.94;;;-5.63;77.12
44148;BME280;29810;55.848;37.368;2023-02-19T06:40:48;97284.41;;;-5.41;75.81
44148;BME280;29810;55.848;37.368;2023-02-19T06:43:50;97283.50;;;-5.32;76.36
44148;BME280;29810;55.848;37.368;2023-02-19T06:46:55;97275.03;;;-5.25;76.28
44148;BME280;29810;55.848;37.368;2023-02-19T06:49:58;97270.75;;;-5.18;75.72
44148;BME280;29810;55.848;37.368;2023-02-19T06:53:01;97269.94;;;-5.29;75.11
44148;BME280;29810;55.848;37.368;2023-02-19T06:56:06;97276.78;;;-5.42;73.57
44148;BME280;29810;55.848;37.368;2023-02-19T06:59:11;97264.09;;;-5.39;75.45
44148;BME280;29810;55.848;37.368;2023-02-19T07:02:12;97252.13;;;-5.20;74.68
44148;BME280;29810;55.848;37.368;2023-02-19T07:05:14;97248.59;;;-4.94;75.17
44148;BME280;29810;55.848;37.368;2023-02-19T07:08:16;97238.34;;;-4.82;73.86
44148;BME280;29810;55.848;37.368;2023-02-19T07:11:18;97243.38;;;-4.73;73.73
44148;BME280;29810;55.848;37.368;2023-02-19T07:14:19;97239.09;;;-4.71;73.33
44148;BME280;29810;55.848;37.368;2023-02-19T07:17:21;97234.94;;;-4.79;73.61
44148;BME280;29810;55.848;37.368;2023-02-19T07:20:23;97236.66;;;-4.88;72.98
44148;BME280;29810;55.848;37.368;2023-02-19T07:23:24;97234.94;;;-4.79;73.71
44148;BME280;29810;55.848;37.368;2023-02-19T07:26:26;97232.41;;;-4.83;73.30
44148;BME280;29810;55.848;37.368;2023-02-19T07:29:28;97226.37;;;-4.71;72.48
44148;BME280;29810;55.848;37.368;2023-02-19T07:32:29;97229.81;;;-4.75;72.90
44148;BME280;29810;55.848;37.368;2023-02-19T07:35:31;97229.88;;;-4.84;72.39
44148;BME280;29810;55.848;37.368;2023-02-19T07:38:33;97236.78;;;-5.03;73.14
44148;BME280;29810;55.848;37.368;2023-02-19T07:41:34;97234.34;;;-5.22;75.42
44148;BME280;29810;55.848;37.368;2023-02-19T07:44:36;97222.56;;;-5.30;76.80
44148;BME280;29810;55.848;37.368;2023-02-19T07:47:43;97214.00;;;-5.16;76.16
44148;BME280;29810;55.848;37.368;2023-02-19T07:50:52;97213.97;;;-5.14;77.63
44148;BME280;29810;55.848;37.368;2023-02-19T07:53:54;97210.44;;;-4.94;77.37
44148;BME280;29810;55.848;37.368;2023-02-19T07:56:58;97210.50;;;-5.02;76.53
44148;BME280;29810;55.848;37.368;2023-02-19T08:00:00;97214.59;;;-4.78;78.44
44148;BME280;29810;55.848;37.368;2023-02-19T08:03:02;97205.09;;;-4.60;77.55
44148;BME280;29810;55.848;37.368;2023-02-19T08:06:11;97207.50;;;-4.45;77.04
44148;BME280;29810;55.848;37.368;2023-02-19T08:09:40;97203.13;;;-4.30;75.73
44148;BME280;29810;55.848;37.368;2023-02-19T08:13:03;97202.09;;;-4.11;75.92
44148;BME280;29810;55.848;37.368;2023-02-19T08:16:21;97205.34;;;-3.96;75.78
44148;BME280;29810;55.848;37.368;2023-02-19T08:19:26;97198.50;;;-3.91;74.78
44148;BME280;29810;55.848;37.368;2023-02-19T08:22:28;97192.38;;;-3.75;74.46
44148;BME280;29810;55.848;37.368;2023-02-19T08:25:32;97205.00;;;-3.69;73.62
44148;BME280;29810;55.848;37.368;2023-02-19T08:28:34;97195.63;;;-3.65;74.16
44148;BME280;29810;55.848;37.368;2023-02-19T08:31:35;97205.00;;;-3.66;73.65
44148;BME280;29810;55.848;37.368;2023-02-19T08:34:37;97193.94;;;-3.64;73.21
44148;BME280;29810;55.848;37.368;2023-02-19T08:37:39;97191.50;;;-3.75;71.56
44148;BME280;29810;55.848;37.368;2023-02-19T08:40:41;97189.84;;;-3.78;72.63
44148;BME280;29810;55.848;37.368;2023-02-19T08:43:43;97190.56;;;-3.67;72.42
44148;BME280;29810;55.848;37.368;2023-02-19T08:46:45;97185.38;;;-3.59;71.70
44148;BME280;29810;55.848;37.368;2023-02-19T08:49:46;97196.50;;;-3.64;71.72
44148;BME280;29810;55.848;37.368;2023-02-19T08:52:48;97192.25;;;-3.66;72.75
44148;BME280;29810;55.848;37.368;2023-02-19T08:55:50;97167.47;;;-3.54;72.41
44148;BME280;29810;55.848;37.368;2023-02-19T08:58:52;97151.44;;;-3.59;71.51
44148;BME280;29810;55.848;37.368;2023-02-19T09:01:53;97184.22;;;-3.36;70.84
44148;BME280;29810;55.848;37.368;2023-02-19T09:04:55;97164.81;;;-3.46;71.25
44148;BME280;29810;55.848;37.368;2023-02-19T09:07:57;97156.69;;;-3.73;71.07
44148;BME280;29810;55.848;37.368;2023-02-19T09:11:03;97165.13;;;-3.71;71.28
44148;BME280;29810;55.848;37.368;2023-02-19T09:14:07;97166.22;;;-3.89;69.47
44148;BME280;29810;55.848;37.368;2023-02-19T09:17:09;97162.91;;;-3.96;71.07
44148;BME280;29810;55.848;37.368;2023-02-19T09:20:11;97160.94;;;-3.72;71.54
44148;BME280;29810;55.848;37.368;2023-02-19T09:23:12;97157.37;;;-3.60;71.30
44148;BME280;29810;55.848;37.368;2023-02-19T09:26:14;97154.16;;;-3.76;71.01
44148;BME280;29810;55.848;37.368;2023-02-19T09:29:16;97160.16;;;-3.79;71.73
44148;BME280;29810;55.848;37.368;2023-02-19T09:32:18;97155.06;;;-3.80;71.77
44148;BME280;29810;55.848;37.368;2023-02-19T09:35:20;97157.69;;;-3.88;71.08
44148;BME280;29810;55.848;37.368;2023-02-19T09:38:23;97149.22;;;-3.87;71.91
44148;BME280;29810;55.848;37.368;2023-02-19T09:41:30;97149.13;;;-3.81;71.93
44148;BME280;29810;55.848;37.368;2023-02-19T09:44:35;97143.16;;;-3.78;71.96
44148;BME280;29810;55.848;37.368;2023-02-19T09:47:39;97136.41;;;-3.81;72.35
44148;BME280;29810;55.848;37.368;2023-02-19T09:50:46;97133.75;;;-3.72;71.64
44148;BME280;29810;55.848;37.368;2023-02-19T09:53:49;97143.00;;;-3.66;69.77
44148;BME280;29810;55.848;37.368;2023-02-19T09:56:54;97143.09;;;-3.72;70.12
44148;BME280;29810;55.848;37.368;2023-02-19T10:00:12;97131.91;;;-3.63;70.44
44148;BME280;29810;55.848;37.368;2023-02-19T10:03:42;97136.97;;;-3.59;70.03
44148;BME280;29810;55.848;37.368;2023-02-19T10:06:45;97133.31;;;-3.41;70.30
44148;BME280;29810;55.848;37.368;2023-02-19T10:09:52;97124.94;;;-3.49;71.31
44148;BME280;29810;55.848;37.368;2023-02-19T10:13:09;97135.78;;;-3.36;70.52
44148;BME280;29810;55.848;37.368;2023-02-19T10:16:19;97130.66;;;-3.33;70.28
44148;BME280;29810;55.848;37.368;2023-02-19T10:19:30;97122.78;;;-3.16;69.92
44148;BME280;29810;55.848;37.368;2023-02-19T10:22:35;97120.94;;;-3.08;69.81
44148;BME280;29810;55.848;37.368;2023-02-19T10:28:52;97121.63;;;-3.00;69.39
44148;BME280;29810;55.848;37.368;2023-02-19T10:32:20;97120.19;;;-3.14;68.47
44148;BME280;29810;55.848;37.368;2023-02-19T10:35:24;97126.59;;;-2.90;68.23
44148;BME280;29810;55.848;37.368;2023-02-19T10:38:44;97127.47;;;-2.91;67.73
44148;BME280;29810;55.848;37.368;2023-02-19T10:41:48;97121.03;;;-2.62;66.72
44148;BME280;29810;55.848;37.368;2023-02-19T10:44:56;97117.78;;;-2.72;66.73
44148;BME280;29810;55.848;37.368;2023-02-19T10:48:02;97118.50;;;-2.62;66.73
44148;BME280;29810;55.848;37.368;2023-02-19T10:51:07;97121.50;;;-2.42;66.20
44148;BME280;29810;55.848;37.368;2023-02-19T10:54:15;97117.19;;;-2.38;65.76
44148;BME280;29810;55.848;37.368;2023-02-19T11:00:25;97100.50;;;-2.55;65.30
44148;BME280;29810;55.848;37.368;2023-02-19T11:03:28;97097.87;;;-2.52;65.42
44148;BME280;29810;55.848;37.368;2023-02-19T11:06:32;97098.25;;;-2.73;65.67
44148;BME280;29810;55.848;37.368;2023-02-19T11:09:42;97098.84;;;-2.59;66.69
44148;BME280;29810;55.848;37.368;2023-02-19T11:12:48;97092.62;;;-2.44;64.51
44148;BME280;29810;55.848;37.368;2023-02-19T11:15:54;97085.53;;;-2.29;66.40
44148;BME280;29810;55.848;37.368;2023-02-19T11:19:00;97093.75;;;-2.13;64.60
44148;BME280;29810;55.848;37.368;2023-02-19T11:25:32;97089.03;;;-1.52;63.69
44148;BME280;29810;55.848;37.368;2023-02-19T11:28:38;97091.78;;;-1.60;63.98
44148;BME280;29810;55.848;37.368;2023-02-19T11:31:40;97087.56;;;-2.03;63.62
44148;BME280;29810;55.848;37.368;2023-02-19T11:34:42;97089.03;;;-2.34;63.94
44148;BME280;29810;55.848;37.368;2023-02-19T11:38:00;97094.69;;;-2.64;64.88
44148;BME280;29810;55.848;37.368;2023-02-19T11:41:10;97096.59;;;-2.76;64.91
44148;BME280;29810;55.848;37.368;2023-02-19T11:51:52;97078.97;;;-3.40;66.22
44148;BME280;29810;55.848;37.368;2023-02-19T11:54:51;97074.75;;;-3.42;67.31
44148;BME280;29810;55.848;37.368;2023-02-19T12:21:55;97075.69;;;-2.95;66.30
44148;BME280;29810;55.848;37.368;2023-02-19T12:25:30;97079.34;;;-3.11;66.10
44148;BME280;29810;55.848;37.368;2023-02-19T12:35:43;97080.41;;;-3.25;65.96
44148;BME280;29810;55.848;37.368;2023-02-19T12:45:29;97086.81;;;-3.57;67.23
44148;BME280;29810;55.848;37.368;2023-02-19T12:48:35;97078.44;;;-3.62;67.89
44148;BME280;29810;55.848;37.368;2023-02-19T12:51:50;97087.94;;;-3.75;68.82
44148;BME280;29810;55.848;37.368;2023-02-19T12:54:57;97088.09;;;-3.87;70.30
44148;BME280;29810;55.848;37.368;2023-02-19T12:58:05;97076.41;;;-4.01;69.45
44148;BME280;29810;55.848;37.368;2023-02-19T13:01:14;97087.25;;;-3.88;69.28
44148;BME280;29810;55.848;37.368;2023-02-19T13:04:23;97097.41;;;-3.85;68.99
44148;BME280;29810;55.848;37.368;2023-02-19T13:11:05;97093.03;;;-3.75;69.48
44148;BME280;29810;55.848;37.368;2023-02-19T13:14:36;97082.94;;;-3.81;69.03
44148;BME280;29810;55.848;37.368;2023-02-19T13:17:43;97093.25;;;-3.90;68.84
44148;BME280;29810;55.848;37.368;2023-02-19T13:20:46;97100.22;;;-4.08;68.85
44148;BME280;29810;55.848;37.368;2023-02-19T13:23:49;97096.19;;;-4.23;70.25
44148;BME280;29810;55.848;37.368;2023-02-19T13:27:32;97096.25;;;-4.30;70.34
44148;BME280;29810;55.848;37.368;2023-02-19T13:31:21;97094.56;;;-4.30;70.18
44148;BME280;29810;55.848;37.368;2023-02-19T13:37:34;97087.88;;;-4.37;70.59
44148;BME280;29810;55.848;37.368;2023-02-19T13:40:39;97091.34;;;-4.46;71.20
44148;BME280;29810;55.848;37.368;2023-02-19T13:43:43;97089.00;;;-4.64;71.66
44148;BME280;29810;55.848;37.368;2023-02-19T13:46:49;97088.09;;;-4.60;72.50
44148;BME280;29810;55.848;37.368;2023-02-19T13:49:51;97093.12;;;-4.54;72.49
44148;BME280;29810;55.848;37.368;2023-02-19T13:52:55;97088.09;;;-4.60;72.53
44148;BME280;29810;55.848;37.368;2023-02-19T13:56:01;97096.59;;;-4.60;72.77
44148;BME280;29810;55.848;37.368;2023-02-19T13:59:35;97091.50;;;-4.58;72.50
44148;BME280;29810;55.848;37.368;2023-02-19T14:02:37;97087.16;;;-4.50;72.64
44148;BME280;29810;55.848;37.368;2023-02-19T14:05:58;97079.59;;;-4.55;72.30
44148;BME280;29810;55.848;37.368;2023-02-19T14:09:01;97076.09;;;-4.47;72.79
44148;BME280;29810;55.848;37.368;2023-02-19T14:12:31;97075.38;;;-4.57;72.84
44148;BME280;29810;55.848;37.368;2023-02-19T14:15:43;97074.47;;;-4.53;72.30
44148;BME280;29810;55.848;37.368;2023-02-19T14:22:49;97073.03;;;-4.77;72.28
44148;BME280;29810;55.848;37.368;2023-02-19T14:26:07;97075.50;;;-4.71;72.71
44148;BME280;29810;55.848;37.368;2023-02-19T14:29:12;97067.13;;;-4.83;72.78
44148;BME280;29810;55.848;37.368;2023-02-19T14:32:18;97063.69;;;-4.78;72.96
44148;BME280;29810;55.848;37.368;2023-02-19T14:35:22;97073.94;;;-4.86;73.21
44148;BME280;29810;55.848;37.368;2023-02-19T14:38:31;97069.66;;;-4.78;72.98
44148;BME280;29810;55.848;37.368;2023-02-19T14:41:50;97069.00;;;-4.99;73.17
44148;BME280;29810;55.848;37.368;2023-02-19T14:44:58;97074.19;;;-5.11;73.61
44148;BME280;29810;55.848;37.368;2023-02-19T14:48:01;97069.97;;;-5.13;74.19
44148;BME280;29810;55.848;37.368;2023-02-19T14:51:06;97062.31;;;-5.10;74.71
44148;BME280;29810;55.848;37.368;2023-02-19T14:54:33;97051.37;;;-5.20;75.21
44148;BME280;29810;55.848;37.368;2023-02-19T14:57:42;97028.59;;;-5.29;75.36
44148;BME280;29810;55.848;37.368;2023-02-19T15:00:49;97047.97;;;-5.14;75.95
44148;BME280;29810;55.848;37.368;2023-02-19T15:04:04;97016.88;;;-5.43;76.54
44148;BME280;29810;55.848;37.368;2023-02-19T15:07:10;97036.22;;;-5.26;75.99
44148;BME280;29810;55.848;37.368;2023-02-19T15:10:14;97053.06;;;-5.19;76.01
44148;BME280;29810;55.848;37.368;2023-02-19T15:13:18;97059.00;;;-5.17;76.61
44148;BME280;29810;55.848;37.368;2023-02-19T15:16:26;97056.47;;;-5.20;76.26
44148;BME280;29810;55.848;37.368;2023-02-19T15:19:31;97060.72;;;-5.22;76.85
44148;BME280;29810;55.848;37.368;2023-02-19T15:22:38;97040.41;;;-5.22;76.43
44148;BME280;29810;55.848;37.368;2023-02-19T15:25:41;97050.50;;;-5.14;76.25
44148;BME280;29810;55.848;37.368;2023-02-19T15:29:11;97042.06;;;-5.18;76.27
44148;BME280;29810;55.848;37.368;2023-02-19T15:32:20;97036.94;;;-5.12;75.98
44148;BME280;29810;55.848;37.368;2023-02-19T15:35:29;97055.62;;;-5.19;75.90
44148;BME280;29810;55.848;37.368;2023-02-19T15:38:33;97050.41;;;-5.04;76.09
44148;BME280;29810;55.848;37.368;2023-02-19T15:45:19;97044.47;;;-5.06;75.75
44148;BME280;29810;55.848;37.368;2023-02-19T15:48:28;97036.81;;;-5.01;75.47
44148;BME280;29810;55.848;37.368;2023-02-19T15:51:46;97039.38;;;-5.06;75.05
44148;BME280;29810;55.848;37.368;2023-02-19T15:55:02;97040.25;;;-5.08;75.10
44148;BME280;29810;55.848;37.368;2023-02-19T16:01:34;97037.81;;;-5.16;75.48
44148;BME280;29810;55.848;37.368;2023-02-19T16:14:32;97032.72;;;-5.18;76.30
44148;BME280;29810;55.848;37.368;2023-02-19T16:17:36;97036.09;;;-5.16;76.59
44148;BME280;29810;55.848;37.368;2023-02-19T16:20:41;97031.00;;;-5.14;76.28
44148;BME280;29810;55.848;37.368;2023-02-19T16:23:58;97038.63;;;-5.11;76.61
44148;BME280;29810;55.848;37.368;2023-02-19T16:27:03;97034.31;;;-5.07;76.70
44148;BME280;29810;55.848;37.368;2023-02-19T16:30:22;97035.25;;;-5.13;76.73
44148;BME280;29810;55.848;37.368;2023-02-19T16:37:39;97030.81;;;-4.92;77.08
44148;BME280;29810;55.848;37.368;2023-02-19T16:43:56;97027.41;;;-4.93;77.32
44148;BME280;29810;55.848;37.368;2023-02-19T16:47:31;97028.28;;;-4.94;77.55
44148;BME280;29810;55.848;37.368;2023-02-19T16:50:38;97025.69;;;-4.89;76.78
44148;BME280;29810;55.848;37.368;2023-02-19T16:53:43;96991.28;;;-5.24;77.67
44148;BME280;29810;55.848;37.368;2023-02-19T16:56:48;97016.47;;;-5.00;77.59
44148;BME280;29810;55.848;37.368;2023-02-19T16:59:50;97026.72;;;-5.09;77.38
44148;BME280;29810;55.848;37.368;2023-02-19T17:03:13;97020.81;;;-5.12;78.23
44148;BME280;29810;55.848;37.368;2023-02-19T17:06:29;97020.00;;;-5.13;78.07
44148;BME280;29810;55.848;37.368;2023-02-19T17:09:33;97019.06;;;-5.06;78.21
44148;BME280;29810;55.848;37.368;2023-02-19T17:12:35;97024.22;;;-5.12;78.32
44148;BME280;29810;55.848;37.368;2023-02-19T17:15:37;96998.87;;;-5.20;78.82
44148;BME280;29810;55.848;37.368;2023-02-19T17:18:38;97025.81;;;-5.00;78.87
44148;BME280;29810;55.848;37.368;2023-02-19T17:21:40;97025.75;;;-4.95;78.58
44148;BME280;29810;55.848;37.368;2023-02-19T17:24:43;97020.69;;;-4.97;78.60
44148;BME280;29810;55.848;37.368;2023-02-19T17:27:46;97024.88;;;-4.94;78.71
44148;BME280;29810;55.848;37.368;2023-02-19T17:30:48;97018.09;;;-4.92;78.49
44148;BME280;29810;55.848;37.368;2023-02-19T17:33:50;97002.91;;;-4.99;78.25
44148;BME280;29810;55.848;37.368;2023-02-19T17:36:52;97017.28;;;-4.96;78.47
44148;BME280;29810;55.848;37.368;2023-02-19T17:39:53;96962.56;;;-5.28;78.46
44148;BME280;29810;55.848;37.368;2023-02-19T17:42:55;97009.62;;;-4.91;78.55
44148;BME280;29810;55.848;37.368;2023-02-19T17:45:57;97015.47;;;-4.85;78.65
44148;BME280;29810;55.848;37.368;2023-02-19T17:48:58;97007.78;;;-4.80;78.58
44148;BME280;29810;55.848;37.368;2023-02-19T17:52:00;97011.16;;;-4.78;78.70
44148;BME280;29810;55.848;37.368;2023-02-19T17:55:01;97002.75;;;-4.83;78.63
44148;BME280;29810;55.848;37.368;2023-02-19T17:58:04;97000.19;;;-4.82;78.95
44148;BME280;29810;55.848;37.368;2023-02-19T18:01:06;96996.63;;;-4.68;78.89
44148;BME280;29810;55.848;37.368;2023-02-19T18:04:07;96999.09;;;-4.60;78.87
44148;BME280;29810;55.848;37.368;2023-02-19T18:07:10;96992.28;;;-4.57;78.47
44148;BME280;29810;55.848;37.368;2023-02-19T18:10:13;97000.84;;;-4.66;78.28
44148;BME280;29810;55.848;37.368;2023-02-19T18:13:15;96992.44;;;-4.71;78.39
44148;BME280;29810;55.848;37.368;2023-02-19T18:16:17;96993.28;;;-4.70;78.60
44148;BME280;29810;55.848;37.368;2023-02-19T18:19:19;96995.06;;;-4.80;78.60